Главная страница
METAR-TAF:

METAR-TAF

Аэропорты :

Мапуту, Мозамбик

широта: 25-55S, долгота: 032-34E, высота над уровнем моря: 39 м

Текущие метеонаблюдения

Эта сводка был подготовлена 39 минут назад, в 03:00 UTC
Ветер 6 Узел от юго-западный
Температура 18°C
Влажность 88%
Давление 1021 hPa
Видимость 10 км и более
Рассеянная облачность на высоте 2000 фута

METAR: FQMA 150300Z 23006KT 9999 BKN020 18/16 Q1021 NOSIG

Время: 05:39 (03:39 UTC)

Прогноз

Эта сводка был подготовлена 5 часа и 39 минут назад, в 22:00 UTC
Прогноз действительный с 15-го 00 UTC до 16-го 06 UTC
Ветер 8 Узел от южный
Видимость 10 км и более
Рассеянная облачность на высоте 2000 фута
изменения
С 15-го 12 UTC до 15-го 14 UTC
Ветер 12 Узел от северо-восточный
изменения
С 15-го 18 UTC до 15-го 20 UTC
Ветер 8 Узел от северный
небольшая облачность на высоте 2000 фута

TAF: FQMA 142200Z 1500/1606 19008KT 9999 BKN020 BECMG 1512/1514 05012KT BECMG 1518/1520 35008KT FEW020 TX32/1513Z TN17/1503Z

Метеонаблюдения и прогнозы для более 4000 аэропортов (сводки METAR и TAF).

Имеющиеся станции представлены на карте желтыми и красными точками.

Чтобы увидеть название станции, наведите на нее мышь.

Затем щелкните, чтобы увидеть метеонаблюдения и метеопрогнозы.

Управление картой: чтобы увеличить масштаб, щелкните зеленые кнопки с черным крестиком; чтобы уменьшить масштаб, щелкните зеленую кнопку с тире; для просмотра соседних карт щелкайте зеленые стрелки.


METAR-TAF: